Terminal Aerodrome Forecast
Issued by NWS Shreveport, LA

Home | Current Version | Previous Version | Text Only | Print | Product List | Glossary On
Versions: 1 2 3 4 5 6 7 8 9 10 11 12 13 14 15 16 17 18
000
FTUS44 KSHV 032320
TAFLFK
TAF
KLFK 032320Z 0400/0424 16004KT P6SM VCTS SCT050CB
      TEMPO 0400/0403 VRB15G22KT 4SM -TSRA BKN050CB
     FM040300 17003KT P6SM SCT050 SCT100 BKN250
      TEMPO 0412/0416 5SM HZ BKN010
     FM041600 20008KT P6SM VCTS SCT030CB SCT100 SCT250=

USA.gov is the U.S. government's official web portal to all federal, state and local government web resources and services.